Time;durP1;ratioP1;P1;durP2;ratioP2;P2;SDS_P1;SDS_P2;PMS_P1;PMS_P2;Temp;Humidity;BMP_temperature;BMP_pressure;BME280_temperature;BME280_humidity;BME280_pressure;Samples;Min_cycle;Max_cycle;Signal;HPM_P1;HPM_P2
2022/09/24 00:01:06;;;;;;;;;;;10.50;99.90;;;;;;5072439;28;20281;-75
2022/09/24 00:03:31;;;;;;;;;;;10.40;99.90;;;;;;5071747;28;19920;-74
2022/09/24 00:06:00;;;;;;;;;;;10.50;99.90;;;;;;5073095;28;19908;-74
2022/09/24 00:08:25;;;;;;;;;;;10.50;99.90;;;;;;5072074;28;20380;-72
2022/09/24 00:10:51;;;;;;;;;;;10.50;99.90;;;;;;5072889;28;19909;-74
2022/09/24 00:13:17;;;;;;;;;;;10.50;99.90;;;;;;5071673;28;20296;-75
2022/09/24 00:15:44;;;;;;;;;;;10.40;99.90;;;;;;5072694;28;19908;-74
2022/09/24 00:18:11;;;;;;;;;;;10.40;99.90;;;;;;5072793;28;19909;-74
2022/09/24 00:20:37;;;;;;;;;;;10.40;99.90;;;;;;5072568;28;19917;-74
2022/09/24 00:23:03;;;;;;;;;;;10.40;99.90;;;;;;5072638;28;19909;-74
2022/09/24 00:28:14;;;;;;;;;;;10.40;99.90;;;;;;5071151;28;19916;-74
2022/09/24 00:30:40;;;;;;;;;;;10.40;99.90;;;;;;5072724;28;20050;-73
2022/09/24 00:33:06;;;;;;;;;;;10.30;99.90;;;;;;5072696;28;20295;-73
2022/09/24 00:35:32;;;;;;;;;;;10.30;99.90;;;;;;5072022;28;19904;-73
2022/09/24 00:37:58;;;;;;;;;;;10.40;99.90;;;;;;5072706;28;19909;-74
2022/09/24 00:40:27;;;;;;;;;;;10.40;99.90;;;;;;5071964;28;19917;-74
2022/09/24 00:42:53;;;;;;;;;;;10.30;99.90;;;;;;5072592;28;19917;-74
2022/09/24 00:45:18;;;;;;;;;;;10.30;99.90;;;;;;5072049;28;19974;-75
2022/09/24 00:47:44;;;;;;;;;;;10.30;99.90;;;;;;5072287;28;19909;-74
2022/09/24 00:50:18;;;;;;;;;;;10.30;99.90;;;;;;5072775;28;19928;-74
2022/09/24 00:53:03;;;;;;;;;;;10.30;99.90;;;;;;5072240;28;19991;-74
2022/09/24 00:55:30;;;;;;;;;;;10.30;99.90;;;;;;5071272;28;19961;-74
2022/09/24 00:57:57;;;;;;;;;;;10.30;99.90;;;;;;5072329;28;19913;-74
2022/09/24 01:00:23;;;;;;;;;;;10.40;99.90;;;;;;5071746;28;19930;-73
2022/09/24 01:02:51;;;;;;;;;;;10.40;99.90;;;;;;5072403;28;19954;-74
2022/09/24 01:05:16;;;;;;;;;;;10.40;99.90;;;;;;5071538;28;19909;-74
2022/09/24 01:07:42;;;;;;;;;;;10.30;99.90;;;;;;5072303;28;19953;-73
2022/09/24 01:10:08;;;;;;;;;;;10.30;99.90;;;;;;5072415;28;19909;-73
2022/09/24 01:12:49;;;;;;;;;;;10.30;99.90;;;;;;5071495;28;20040;-74
2022/09/24 01:15:19;;;;;;;;;;;10.30;99.90;;;;;;5072053;28;19909;-75
2022/09/24 01:17:54;;;;;;;;;;;10.30;99.90;;;;;;5071142;28;19991;-75
2022/09/24 01:20:32;;;;;;;;;;;10.30;99.90;;;;;;5071726;28;19922;-75
2022/09/24 01:22:58;;;;;;;;;;;10.30;99.90;;;;;;5071953;28;19908;-75
2022/09/24 01:25:42;;;;;;;;;;;10.30;99.90;;;;;;5074863;28;19909;-75
2022/09/24 01:28:22;;;;;;;;;;;10.30;99.90;;;;;;5075779;28;19908;-73
2022/09/24 01:30:49;;;;;;;;;;;10.30;99.90;;;;;;5075998;28;19959;-74
2022/09/24 01:33:18;;;;;;;;;;;10.30;99.90;;;;;;5075087;28;19909;-73
2022/09/24 01:35:47;;;;;;;;;;;10.30;99.90;;;;;;5075512;28;19947;-73
2022/09/24 01:38:16;;;;;;;;;;;10.40;99.90;;;;;;5075797;28;20368;-74
2022/09/24 01:40:44;;;;;;;;;;;10.40;99.90;;;;;;5075392;28;20369;-73
2022/09/24 01:43:10;;;;;;;;;;;10.40;99.90;;;;;;5075443;28;19908;-73
2022/09/24 01:45:37;;;;;;;;;;;10.40;99.90;;;;;;5074885;28;19912;-74
2022/09/24 01:48:03;;;;;;;;;;;10.40;99.90;;;;;;5074960;28;20358;-73
2022/09/24 01:50:31;;;;;;;;;;;10.40;99.90;;;;;;5074607;28;19915;-73
2022/09/24 01:53:02;;;;;;;;;;;10.50;99.90;;;;;;5075612;28;20327;-73
2022/09/24 01:55:32;;;;;;;;;;;10.40;99.90;;;;;;5074785;28;19958;-74
2022/09/24 01:58:00;;;;;;;;;;;10.50;99.90;;;;;;5075341;28;19909;-73
2022/09/24 02:00:26;;;;;;;;;;;10.50;99.90;;;;;;5074077;28;20348;-74
2022/09/24 02:02:58;;;;;;;;;;;10.50;99.90;;;;;;5075227;28;19908;-75
2022/09/24 02:05:32;;;;;;;;;;;10.40;99.90;;;;;;5074408;28;19923;-74
2022/09/24 02:08:07;;;;;;;;;;;10.50;99.90;;;;;;5074910;28;19944;-74
2022/09/24 02:10:53;;;;;;;;;;;10.50;99.90;;;;;;5074189;28;19909;-73
2022/09/24 02:13:20;;;;;;;;;;;10.50;99.90;;;;;;5073880;28;19908;-74
2022/09/24 02:15:48;;;;;;;;;;;10.50;99.90;;;;;;5073723;28;19948;-73
2022/09/24 02:18:15;;;;;;;;;;;10.50;99.90;;;;;;5074705;28;19909;-73
2022/09/24 02:20:42;;;;;;;;;;;10.50;99.90;;;;;;5073057;28;19921;-73
2022/09/24 02:23:09;;;;;;;;;;;10.50;99.90;;;;;;5074725;28;20373;-73
2022/09/24 02:25:54;;;;;;;;;;;10.50;99.90;;;;;;5073987;28;19913;-73
2022/09/24 02:28:20;;;;;;;;;;;10.50;99.90;;;;;;5074187;28;19987;-74
2022/09/24 02:30:49;;;;;;;;;;;10.50;99.90;;;;;;5074591;28;19999;-74
2022/09/24 02:35:59;;;;;;;;;;;10.50;99.90;;;;;;5073662;28;20360;-74
2022/09/24 02:38:24;;;;;;;;;;;10.50;99.90;;;;;;5073949;28;19909;-74
2022/09/24 02:40:52;;;;;;;;;;;10.50;99.90;;;;;;5074426;28;19917;-74
2022/09/24 02:43:17;;;;;;;;;;;10.50;99.90;;;;;;5073078;28;19950;-74
2022/09/24 02:45:43;;;;;;;;;;;10.50;99.90;;;;;;5073849;28;19908;-74
2022/09/24 02:48:09;;;;;;;;;;;10.50;99.90;;;;;;5074100;28;19916;-74
2022/09/24 02:50:34;;;;;;;;;;;10.60;99.90;;;;;;5073813;28;19958;-74
2022/09/24 02:53:00;;;;;;;;;;;10.60;99.90;;;;;;5074211;28;19915;-74
2022/09/24 02:55:26;;;;;;;;;;;10.60;99.90;;;;;;5072324;28;20273;-74
2022/09/24 02:57:52;;;;;;;;;;;10.60;99.90;;;;;;5074053;28;19918;-74
2022/09/24 03:00:19;;;;;;;;;;;10.50;99.90;;;;;;5073818;28;19924;-74
2022/09/24 03:02:46;;;;;;;;;;;10.50;99.90;;;;;;5073764;28;19915;-74
2022/09/24 03:05:12;;;;;;;;;;;10.50;99.90;;;;;;5073945;28;20269;-74
2022/09/24 03:07:38;;;;;;;;;;;10.60;99.90;;;;;;5073240;28;20000;-74
2022/09/24 03:10:03;;;;;;;;;;;10.60;99.90;;;;;;5073829;28;20365;-74
2022/09/24 03:12:29;;;;;;;;;;;10.60;99.90;;;;;;5073283;28;19908;-74
2022/09/24 03:14:55;;;;;;;;;;;10.60;99.90;;;;;;5073591;28;19951;-74
2022/09/24 03:17:20;;;;;;;;;;;10.60;99.90;;;;;;5073261;28;19912;-74
2022/09/24 03:19:46;;;;;;;;;;;10.60;99.90;;;;;;5073363;28;20007;-74
2022/09/24 03:22:11;;;;;;;;;;;10.50;99.90;;;;;;5073239;28;19970;-74
2022/09/24 03:24:37;;;;;;;;;;;10.50;99.90;;;;;;5071722;28;19988;-74
2022/09/24 03:27:02;;;;;;;;;;;10.50;99.90;;;;;;5073490;28;20346;-74
2022/09/24 03:32:12;;;;;;;;;;;10.50;99.90;;;;;;5072950;28;20434;-74
2022/09/24 03:34:37;;;;;;;;;;;10.50;99.90;;;;;;5072451;28;19914;-74
2022/09/24 03:37:03;;;;;;;;;;;10.40;99.90;;;;;;5073191;28;19915;-74
2022/09/24 03:39:28;;;;;;;;;;;10.40;99.90;;;;;;5072603;28;19923;-74
2022/09/24 03:41:54;;;;;;;;;;;10.50;99.90;;;;;;5072998;28;19953;-74
2022/09/24 03:44:20;;;;;;;;;;;10.40;99.90;;;;;;5072830;28;19909;-73
2022/09/24 03:46:45;;;;;;;;;;;10.40;99.90;;;;;;5072731;28;19908;-73
2022/09/24 03:49:11;;;;;;;;;;;10.40;99.90;;;;;;5071385;28;19925;-73
2022/09/24 03:51:37;;;;;;;;;;;10.40;99.90;;;;;;5072584;28;20281;-73
2022/09/24 03:54:02;;;;;;;;;;;10.30;99.90;;;;;;5071852;28;20004;-73
2022/09/24 03:56:28;;;;;;;;;;;10.30;99.90;;;;;;5072348;28;19916;-73
2022/09/24 03:58:53;;;;;;;;;;;10.30;99.90;;;;;;5072892;28;19908;-73
2022/09/24 04:01:19;;;;;;;;;;;10.30;99.90;;;;;;5071518;28;19915;-74
2022/09/24 04:03:45;;;;;;;;;;;10.20;99.90;;;;;;5072449;28;19915;-74
2022/09/24 04:06:11;;;;;;;;;;;10.10;99.90;;;;;;5072564;28;19912;-75
2022/09/24 04:08:37;;;;;;;;;;;10.10;99.90;;;;;;5071944;28;19909;-74
2022/09/24 04:11:02;;;;;;;;;;;10.00;99.90;;;;;;5072922;28;19962;-74
2022/09/24 04:13:28;;;;;;;;;;;10.00;99.90;;;;;;5071884;28;20385;-73
2022/09/24 04:15:54;;;;;;;;;;;10.00;99.90;;;;;;5072918;28;19970;-73
2022/09/24 04:18:20;;;;;;;;;;;9.90;99.90;;;;;;5072461;28;20011;-74
2022/09/24 04:20:45;;;;;;;;;;;9.90;99.90;;;;;;5072118;28;19928;-74
2022/09/24 04:23:11;;;;;;;;;;;9.80;99.90;;;;;;5072805;28;19958;-74
2022/09/24 04:25:39;;;;;;;;;;;9.80;99.90;;;;;;5072026;28;19908;-74
2022/09/24 04:28:06;;;;;;;;;;;9.80;99.90;;;;;;5072856;28;19909;-74
2022/09/24 04:30:32;;;;;;;;;;;9.70;99.90;;;;;;5072225;28;19909;-74
2022/09/24 04:32:59;;;;;;;;;;;9.70;99.90;;;;;;5072586;28;19915;-74
2022/09/24 04:35:26;;;;;;;;;;;9.70;99.90;;;;;;5072469;28;19914;-73
2022/09/24 04:37:52;;;;;;;;;;;9.60;99.90;;;;;;5072095;28;19951;-73
2022/09/24 04:40:18;;;;;;;;;;;9.60;99.90;;;;;;5072521;28;20369;-73
2022/09/24 04:42:45;;;;;;;;;;;9.50;99.90;;;;;;5072031;28;19951;-73
2022/09/24 04:45:11;;;;;;;;;;;9.50;99.90;;;;;;5072351;28;20254;-74
2022/09/24 04:47:39;;;;;;;;;;;9.40;99.90;;;;;;5072020;28;19962;-73
2022/09/24 04:50:06;;;;;;;;;;;9.40;99.90;;;;;;5072597;28;19927;-74
2022/09/24 04:52:32;;;;;;;;;;;9.50;99.90;;;;;;5071755;28;19913;-74
2022/09/24 04:54:58;;;;;;;;;;;9.40;99.90;;;;;;5072329;28;19962;-74
2022/09/24 04:57:25;;;;;;;;;;;9.30;99.90;;;;;;5072577;28;19908;-74
2022/09/24 04:59:50;;;;;;;;;;;9.30;99.90;;;;;;5074665;28;19923;-74
2022/09/24 05:02:18;;;;;;;;;;;9.30;99.90;;;;;;5075125;28;20366;-73
2022/09/24 05:04:43;;;;;;;;;;;9.30;99.90;;;;;;5075819;28;19915;-73
2022/09/24 05:07:09;;;;;;;;;;;9.20;99.90;;;;;;5076261;28;20422;-73
2022/09/24 05:09:35;;;;;;;;;;;9.20;99.90;;;;;;5075672;28;19908;-74
2022/09/24 05:12:02;;;;;;;;;;;9.10;99.90;;;;;;5076125;28;20387;-74
2022/09/24 05:14:29;;;;;;;;;;;9.10;99.90;;;;;;5075501;28;19908;-74
2022/09/24 05:16:54;;;;;;;;;;;9.00;99.90;;;;;;5076156;28;19931;-74
2022/09/24 05:19:20;;;;;;;;;;;9.10;99.90;;;;;;5075832;28;19913;-74
2022/09/24 05:21:45;;;;;;;;;;;9.00;99.90;;;;;;5075203;28;19919;-74
2022/09/24 05:24:11;;;;;;;;;;;9.00;99.90;;;;;;5075789;28;20356;-74
2022/09/24 05:29:21;;;;;;;;;;;9.10;99.90;;;;;;5075918;28;19920;-74
2022/09/24 05:31:46;;;;;;;;;;;9.00;99.90;;;;;;5075185;28;19908;-74
2022/09/24 05:34:13;;;;;;;;;;;9.00;99.90;;;;;;5075221;28;19912;-74
2022/09/24 05:36:39;;;;;;;;;;;9.00;99.90;;;;;;5075049;28;19908;-74
2022/09/24 05:39:04;;;;;;;;;;;9.00;99.90;;;;;;5075157;28;20310;-73
2022/09/24 05:41:30;;;;;;;;;;;9.00;99.90;;;;;;5075240;28;19920;-73
2022/09/24 05:43:58;;;;;;;;;;;9.00;99.90;;;;;;5075612;28;20273;-74
2022/09/24 05:46:24;;;;;;;;;;;9.10;99.90;;;;;;5075292;28;19909;-73
2022/09/24 05:48:49;;;;;;;;;;;9.10;99.90;;;;;;5074854;28;19927;-74
2022/09/24 05:51:15;;;;;;;;;;;9.20;99.90;;;;;;5075423;28;20015;-73
2022/09/24 05:53:40;;;;;;;;;;;9.20;99.90;;;;;;5074926;28;19958;-73
2022/09/24 05:56:06;;;;;;;;;;;9.30;99.90;;;;;;5075570;28;19908;-73
2022/09/24 05:58:32;;;;;;;;;;;9.30;99.90;;;;;;5074478;28;19909;-74
2022/09/24 06:00:58;;;;;;;;;;;9.40;99.90;;;;;;5075450;28;19983;-73
2022/09/24 06:03:24;;;;;;;;;;;9.40;99.90;;;;;;5075130;28;19919;-73
2022/09/24 06:05:50;;;;;;;;;;;9.50;99.90;;;;;;5074692;28;20593;-73
2022/09/24 06:08:17;;;;;;;;;;;9.50;99.90;;;;;;5074793;28;19913;-74
2022/09/24 06:10:44;;;;;;;;;;;9.50;99.90;;;;;;5073130;28;20354;-73
2022/09/24 06:13:10;;;;;;;;;;;9.50;99.90;;;;;;5075487;28;19909;-75
2022/09/24 06:15:40;;;;;;;;;;;9.50;99.90;;;;;;5074460;28;19908;-75
2022/09/24 06:18:05;;;;;;;;;;;9.50;99.90;;;;;;5074828;28;19908;-75
2022/09/24 06:20:31;;;;;;;;;;;9.50;99.90;;;;;;5074596;28;19924;-75
2022/09/24 06:22:57;;;;;;;;;;;9.50;99.90;;;;;;5074550;28;20419;-75
2022/09/24 06:25:24;;;;;;;;;;;9.50;99.90;;;;;;5074927;28;19908;-74
2022/09/24 06:27:59;;;;;;;;;;;9.50;99.90;;;;;;5074276;28;19997;-75
2022/09/24 06:30:28;;;;;;;;;;;9.40;99.90;;;;;;5074636;28;19966;-75
2022/09/24 06:32:54;;;;;;;;;;;9.40;99.90;;;;;;5074031;28;19913;-74
2022/09/24 06:35:19;;;;;;;;;;;9.50;99.90;;;;;;5074452;28;19909;-74
2022/09/24 06:37:48;;;;;;;;;;;9.50;99.90;;;;;;5074033;28;20002;-74
2022/09/24 06:40:14;;;;;;;;;;;9.60;99.90;;;;;;5074454;28;19970;-74
2022/09/24 06:42:39;;;;;;;;;;;9.70;99.90;;;;;;5074225;28;19913;-74
2022/09/24 06:45:05;;;;;;;;;;;9.70;99.90;;;;;;5074454;28;19912;-74
2022/09/24 06:47:30;;;;;;;;;;;9.80;99.90;;;;;;5074116;28;20024;-74
2022/09/24 06:49:56;;;;;;;;;;;9.80;99.90;;;;;;5073707;28;19973;-74
2022/09/24 06:52:22;;;;;;;;;;;10.00;99.90;;;;;;5074022;28;19920;-74
2022/09/24 06:54:47;;;;;;;;;;;10.00;99.90;;;;;;5073514;28;19909;-74
2022/09/24 06:57:15;;;;;;;;;;;10.10;99.90;;;;;;5074234;28;19908;-75
2022/09/24 06:59:40;;;;;;;;;;;10.10;99.90;;;;;;5073257;28;19995;-74
2022/09/24 07:02:09;;;;;;;;;;;10.20;99.90;;;;;;5072815;28;20029;-75
2022/09/24 07:04:34;;;;;;;;;;;10.30;99.90;;;;;;5072023;28;19912;-75
2022/09/24 07:09:44;;;;;;;;;;;10.30;99.90;;;;;;5073543;28;19915;-74
2022/09/24 07:12:09;;;;;;;;;;;10.30;99.90;;;;;;5073436;28;19908;-74
2022/09/24 07:14:35;;;;;;;;;;;10.40;99.90;;;;;;5073415;28;19909;-74
2022/09/24 07:17:01;;;;;;;;;;;10.60;99.90;;;;;;5073789;28;19913;-73
2022/09/24 07:19:26;;;;;;;;;;;10.70;99.90;;;;;;5073569;28;20011;-74
2022/09/24 07:21:52;;;;;;;;;;;10.90;99.90;;;;;;5072599;28;20262;-74
2022/09/24 07:24:17;;;;;;;;;;;11.10;99.90;;;;;;5073026;28;19909;-74
2022/09/24 07:26:43;;;;;;;;;;;11.10;99.90;;;;;;5072547;28;19909;-74
2022/09/24 07:29:08;;;;;;;;;;;11.10;99.90;;;;;;5073156;28;19908;-74
2022/09/24 07:31:35;;;;;;;;;;;11.20;99.90;;;;;;5073187;28;20006;-73
2022/09/24 07:34:00;;;;;;;;;;;11.20;99.90;;;;;;5072836;28;19935;-74
2022/09/24 07:36:29;;;;;;;;;;;11.20;99.90;;;;;;5073021;28;19913;-73
2022/09/24 07:38:55;;;;;;;;;;;11.20;99.90;;;;;;5072609;28;20067;-74
2022/09/24 07:41:20;;;;;;;;;;;11.10;99.90;;;;;;5072696;28;20357;-74
2022/09/24 07:43:46;;;;;;;;;;;11.10;99.90;;;;;;5072540;28;19932;-74
2022/09/24 07:46:12;;;;;;;;;;;11.10;99.90;;;;;;5073025;28;19909;-74
2022/09/24 07:48:38;;;;;;;;;;;11.20;99.90;;;;;;5072563;28;19942;-74
2022/09/24 07:51:05;;;;;;;;;;;11.10;99.90;;;;;;5073065;28;19912;-74
2022/09/24 07:53:30;;;;;;;;;;;11.10;99.90;;;;;;5072875;28;19908;-74
2022/09/24 07:55:59;;;;;;;;;;;11.10;99.90;;;;;;5072123;28;19991;-73
2022/09/24 07:58:24;;;;;;;;;;;11.10;99.90;;;;;;5072876;28;19956;-74
2022/09/24 08:00:50;;;;;;;;;;;11.20;99.90;;;;;;5072126;28;19955;-74
2022/09/24 08:03:15;;;;;;;;;;;11.20;99.90;;;;;;5072885;28;19916;-73
2022/09/24 08:05:44;;;;;;;;;;;11.20;99.90;;;;;;5072241;28;20354;-73
2022/09/24 08:08:10;;;;;;;;;;;11.30;99.90;;;;;;5072536;28;19999;-73
2022/09/24 08:10:37;;;;;;;;;;;11.30;99.90;;;;;;5072715;28;20410;-74
2022/09/24 08:13:03;;;;;;;;;;;11.30;99.90;;;;;;5072193;28;20006;-74
2022/09/24 08:15:28;;;;;;;;;;;11.40;99.90;;;;;;5072345;28;19954;-74
2022/09/24 08:17:59;;;;;;;;;;;11.50;99.90;;;;;;5072027;28;19930;-73
2022/09/24 08:20:24;;;;;;;;;;;11.60;99.90;;;;;;5072130;28;20011;-73
2022/09/24 08:22:50;;;;;;;;;;;11.70;99.90;;;;;;5071804;28;19997;-73
2022/09/24 08:25:16;;;;;;;;;;;11.70;99.90;;;;;;5072729;28;19934;-72
2022/09/24 08:27:41;;;;;;;;;;;11.70;99.90;;;;;;5071998;28;20025;-74
2022/09/24 08:30:07;;;;;;;;;;;11.80;99.90;;;;;;5072104;28;20308;-73
2022/09/24 08:32:33;;;;;;;;;;;11.80;99.90;;;;;;5072509;28;19916;-74
2022/09/24 08:34:58;;;;;;;;;;;11.80;99.90;;;;;;5073683;28;19939;-73
2022/09/24 08:37:25;;;;;;;;;;;11.90;99.90;;;;;;5076823;28;19915;-74
2022/09/24 08:39:50;;;;;;;;;;;11.90;99.90;;;;;;5076013;28;19920;-73
2022/09/24 08:42:31;;;;;;;;;;;12.00;99.90;;;;;;5076425;28;19912;-73
2022/09/24 08:47:44;;;;;;;;;;;12.00;99.90;;;;;;5076046;28;19918;-73
2022/09/24 08:50:10;;;;;;;;;;;12.00;99.90;;;;;;5076538;28;19928;-74
2022/09/24 08:52:40;;;;;;;;;;;12.10;99.90;;;;;;5076502;28;19909;-73
2022/09/24 08:55:26;;;;;;;;;;;12.10;99.90;;;;;;5076444;28;19908;-73
2022/09/24 08:57:59;;;;;;;;;;;12.10;99.90;;;;;;5075295;28;19920;-73
2022/09/24 09:00:28;;;;;;;;;;;12.10;99.90;;;;;;5076078;28;19916;-73
2022/09/24 09:03:12;;;;;;;;;;;12.10;99.90;;;;;;5075526;28;20380;-73
2022/09/24 09:05:52;;;;;;;;;;;12.20;99.90;;;;;;5076139;28;20360;-73
2022/09/24 09:08:25;;;;;;;;;;;12.30;99.90;;;;;;5076384;28;19915;-74
2022/09/24 09:10:55;;;;;;;;;;;12.40;99.90;;;;;;5075491;28;19913;-74
2022/09/24 09:13:27;;;;;;;;;;;12.50;99.90;;;;;;5075564;28;19967;-74
2022/09/24 09:15:57;;;;;;;;;;;12.50;99.90;;;;;;5075294;28;20337;-73
2022/09/24 09:18:28;;;;;;;;;;;12.60;99.90;;;;;;5075413;28;19908;-73
2022/09/24 09:20:58;;;;;;;;;;;12.60;99.90;;;;;;5075064;28;19912;-73
2022/09/24 09:23:31;;;;;;;;;;;12.80;99.90;;;;;;5075762;28;19912;-73
2022/09/24 09:25:58;;;;;;;;;;;12.90;99.90;;;;;;5075260;28;19915;-74
2022/09/24 09:28:25;;;;;;;;;;;13.10;99.90;;;;;;5076024;28;19909;-73
2022/09/24 09:30:50;;;;;;;;;;;13.20;99.90;;;;;;5075143;28;19909;-73
2022/09/24 09:33:39;;;;;;;;;;;13.30;99.90;;;;;;5075526;28;19987;-74
2022/09/24 09:36:23;;;;;;;;;;;13.40;99.90;;;;;;5071740;28;19912;-74
2022/09/24 09:38:54;;;;;;;;;;;13.40;99.90;;;;;;5075038;28;20006;-74
2022/09/24 09:41:25;;;;;;;;;;;13.40;99.90;;;;;;5075708;28;19912;-74
2022/09/24 09:43:54;;;;;;;;;;;13.40;99.90;;;;;;5074857;28;20010;-74
2022/09/24 09:46:26;;;;;;;;;;;13.30;99.90;;;;;;5074964;28;19908;-74
2022/09/24 09:49:04;;;;;;;;;;;13.40;99.90;;;;;;5074458;28;20055;-74
2022/09/24 09:51:36;;;;;;;;;;;13.50;99.90;;;;;;5075433;28;19909;-74
2022/09/24 09:54:02;;;;;;;;;;;13.50;99.90;;;;;;5073539;28;20397;-74
2022/09/24 09:56:35;;;;;;;;;;;13.50;99.90;;;;;;5073958;28;19970;-74
2022/09/24 09:59:05;;;;;;;;;;;13.60;99.90;;;;;;5074113;28;19916;-73
2022/09/24 10:01:33;;;;;;;;;;;13.70;99.90;;;;;;5075292;28;19916;-73
2022/09/24 10:04:02;;;;;;;;;;;13.70;99.90;;;;;;5074184;28;20281;-74
2022/09/24 10:06:29;;;;;;;;;;;13.90;99.90;;;;;;5074729;28;19931;-73
2022/09/24 10:09:05;;;;;;;;;;;14.10;99.90;;;;;;5074453;28;19909;-73
2022/09/24 10:11:30;;;;;;;;;;;14.20;99.90;;;;;;5075131;28;19948;-73
2022/09/24 10:14:03;;;;;;;;;;;14.20;99.90;;;;;;5073832;28;19962;-74
2022/09/24 10:16:29;;;;;;;;;;;14.20;99.90;;;;;;5074227;28;20259;-73
2022/09/24 10:18:54;;;;;;;;;;;14.20;99.90;;;;;;5074268;28;19912;-75
2022/09/24 10:21:33;;;;;;;;;;;14.20;99.90;;;;;;5074442;28;19969;-74
2022/09/24 10:24:00;;;;;;;;;;;14.30;99.90;;;;;;5073974;28;19909;-75
2022/09/24 10:26:36;;;;;;;;;;;14.40;99.90;;;;;;5074636;28;19909;-74
2022/09/24 10:31:47;;;;;;;;;;;14.40;99.90;;;;;;5074349;28;20003;-74
2022/09/24 10:34:27;;;;;;;;;;;14.40;99.90;;;;;;5073004;28;20262;-74
2022/09/24 10:36:59;;;;;;;;;;;14.50;99.90;;;;;;5073732;28;19908;-73
2022/09/24 10:39:25;;;;;;;;;;;14.30;99.90;;;;;;5074201;28;19919;-73
2022/09/24 10:41:52;;;;;;;;;;;14.20;99.90;;;;;;5072387;28;20036;-74
2022/09/24 10:44:19;;;;;;;;;;;14.20;99.90;;;;;;5074021;28;20540;-73
2022/09/24 10:46:44;;;;;;;;;;;14.10;99.90;;;;;;5074375;28;20364;-74
2022/09/24 10:49:28;;;;;;;;;;;14.00;99.90;;;;;;5073487;28;19920;-73
2022/09/24 10:52:24;;;;;;;;;;;14.00;99.90;;;;;;5073527;28;19908;-74
2022/09/24 10:54:57;;;;;;;;;;;14.10;99.90;;;;;;5068087;28;19913;-74
2022/09/24 10:57:45;;;;;;;;;;;14.10;99.90;;;;;;5073121;28;19963;-74
2022/09/24 11:00:21;;;;;;;;;;;14.10;99.90;;;;;;5072983;28;20320;-74
2022/09/24 11:02:46;;;;;;;;;;;14.20;99.90;;;;;;5072567;28;19913;-74
2022/09/24 11:05:19;;;;;;;;;;;14.30;99.90;;;;;;5073305;28;19916;-74
2022/09/24 11:07:55;;;;;;;;;;;14.30;99.90;;;;;;5073517;28;19961;-74
2022/09/24 11:10:22;;;;;;;;;;;14.40;99.90;;;;;;5073378;28;19929;-74
2022/09/24 11:12:47;;;;;;;;;;;14.50;99.90;;;;;;5073341;28;20358;-74
2022/09/24 11:15:19;;;;;;;;;;;14.60;99.90;;;;;;5073164;28;19961;-74
2022/09/24 11:18:03;;;;;;;;;;;14.60;99.90;;;;;;5073675;28;19909;-73
2022/09/24 11:20:32;;;;;;;;;;;14.70;99.90;;;;;;5073420;28;19912;-73
2022/09/24 11:22:58;;;;;;;;;;;14.70;99.90;;;;;;5073272;28;20021;-73
2022/09/24 11:25:42;;;;;;;;;;;14.60;99.90;;;;;;5073523;28;19921;-74
2022/09/24 11:28:37;;;;;;;;;;;14.50;99.90;;;;;;5073252;28;20697;-74
2022/09/24 11:31:21;;;;;;;;;;;14.40;99.90;;;;;;5067712;28;19908;-74
2022/09/24 11:34:04;;;;;;;;;;;14.20;99.90;;;;;;5073423;28;19912;-74
2022/09/24 11:37:08;;;;;;;;;;;14.20;99.90;;;;;;5073467;28;19908;-74
2022/09/24 11:39:46;;;;;;;;;;;14.10;99.90;;;;;;5050751;28;20350;-74
2022/09/24 11:42:15;;;;;;;;;;;14.20;99.90;;;;;;5050185;28;19919;-74
2022/09/24 11:44:51;;;;;;;;;;;14.30;99.90;;;;;;5050708;28;19916;-74
2022/09/24 11:47:34;;;;;;;;;;;14.50;99.90;;;;;;5050677;28;19959;-74
2022/09/24 11:50:19;;;;;;;;;;;14.50;99.90;;;;;;5049982;28;19970;-74
2022/09/24 11:52:49;;;;;;;;;;;14.50;99.90;;;;;;5050722;28;19908;-74
2022/09/24 11:55:31;;;;;;;;;;;14.30;99.90;;;;;;5050334;28;19931;-74
2022/09/24 11:58:08;;;;;;;;;;;14.10;99.90;;;;;;5050108;28;19909;-74
2022/09/24 12:00:39;;;;;;;;;;;14.00;99.90;;;;;;5050540;28;19956;-74
2022/09/24 12:03:13;;;;;;;;;;;14.00;99.90;;;;;;5049729;28;19919;-74
2022/09/24 12:05:43;;;;;;;;;;;14.10;99.90;;;;;;5050462;28;20386;-73
2022/09/24 12:08:09;;;;;;;;;;;14.40;99.90;;;;;;5049753;28;19958;-74
2022/09/24 12:10:34;;;;;;;;;;;14.50;99.90;;;;;;5063783;28;20354;-74
2022/09/24 12:13:14;;;;;;;;;;;14.40;99.90;;;;;;5072202;28;19920;-73
2022/09/24 12:15:46;;;;;;;;;;;14.40;99.90;;;;;;5071477;28;20281;-74
2022/09/24 12:18:15;;;;;;;;;;;14.30;99.90;;;;;;5071996;28;19915;-73
2022/09/24 12:20:46;;;;;;;;;;;14.20;99.90;;;;;;5072574;28;20422;-73
2022/09/24 12:23:13;;;;;;;;;;;14.10;99.90;;;;;;5071742;28;20273;-73
2022/09/24 12:25:41;;;;;;;;;;;14.10;99.90;;;;;;5072098;28;19913;-74
2022/09/24 12:32:52;;;;;;;;;;;14.20;99.90;;;;;;5072060;28;20043;-74
2022/09/24 12:33:52;;;;;;;;;;;14.50;99.90;;;;;;5072265;28;19946;-74
2022/09/24 12:36:28;;;;;;;;;;;14.50;99.90;;;;;;5071144;28;20358;-73
2022/09/24 12:38:59;;;;;;;;;;;14.30;99.90;;;;;;5072333;28;19909;-74
2022/09/24 12:41:25;;;;;;;;;;;14.10;99.90;;;;;;5072110;28;20023;-75
2022/09/24 12:44:08;;;;;;;;;;;14.10;99.90;;;;;;5071023;28;19962;-74
2022/09/24 12:46:39;;;;;;;;;;;14.10;99.90;;;;;;5071992;28;20348;-75
2022/09/24 12:49:25;;;;;;;;;;;14.30;99.90;;;;;;5071816;28;19924;-73
2022/09/24 12:51:51;;;;;;;;;;;14.40;99.90;;;;;;5067875;28;19954;-75
2022/09/24 12:54:27;;;;;;;;;;;14.60;99.90;;;;;;5071951;28;20003;-75
2022/09/24 12:57:05;;;;;;;;;;;14.80;99.90;;;;;;5071465;28;20365;-75
2022/09/24 12:59:30;;;;;;;;;;;15.00;99.90;;;;;;5072267;28;19913;-75
2022/09/24 13:02:06;;;;;;;;;;;15.20;99.90;;;;;;5071297;28;19920;-75
2022/09/24 13:04:31;;;;;;;;;;;15.30;99.90;;;;;;5071989;28;20266;-75
2022/09/24 13:06:57;;;;;;;;;;;15.30;99.90;;;;;;5071666;28;19914;-74
2022/09/24 13:09:33;;;;;;;;;;;15.20;99.90;;;;;;5072531;28;19992;-74
2022/09/24 13:12:19;;;;;;;;;;;15.00;99.90;;;;;;5071313;28;19908;-73
2022/09/24 13:14:57;;;;;;;;;;;14.80;99.90;;;;;;5072001;28;19916;-73
2022/09/24 13:17:23;;;;;;;;;;;14.70;99.90;;;;;;5072378;28;20273;-73
2022/09/24 13:19:56;;;;;;;;;;;14.70;99.90;;;;;;5072106;28;19912;-74
2022/09/24 13:22:21;;;;;;;;;;;14.70;99.90;;;;;;5075827;28;20011;-75
2022/09/24 13:24:51;;;;;;;;;;;15.00;99.90;;;;;;5075291;28;20392;-74
2022/09/24 13:27:22;;;;;;;;;;;15.20;99.90;;;;;;5074976;28;19986;-74
2022/09/24 13:29:59;;;;;;;;;;;15.20;99.90;;;;;;5075218;28;19909;-73
2022/09/24 13:32:25;;;;;;;;;;;15.20;99.90;;;;;;5074723;28;19909;-74
2022/09/24 13:34:52;;;;;;;;;;;15.20;99.90;;;;;;5075102;28;19920;-74
2022/09/24 13:37:21;;;;;;;;;;;15.40;99.90;;;;;;5074743;28;19962;-74
2022/09/24 13:39:50;;;;;;;;;;;15.40;99.90;;;;;;5075048;28;19913;-74
2022/09/24 13:42:19;;;;;;;;;;;15.50;99.90;;;;;;5074318;28;19920;-74
2022/09/24 13:44:47;;;;;;;;;;;15.40;99.90;;;;;;5074990;28;19916;-73
2022/09/24 13:47:15;;;;;;;;;;;15.30;99.90;;;;;;5074184;28;19916;-73
2022/09/24 13:49:44;;;;;;;;;;;15.20;99.90;;;;;;5074514;28;20088;-74
2022/09/24 13:52:29;;;;;;;;;;;15.10;99.90;;;;;;5073825;28;19940;-74
2022/09/24 13:54:57;;;;;;;;;;;15.20;99.90;;;;;;5074047;28;20330;-73
2022/09/24 13:57:24;;;;;;;;;;;15.30;99.90;;;;;;5074584;28;19908;-73
2022/09/24 14:00:09;;;;;;;;;;;15.30;99.90;;;;;;5074193;28;19919;-73
2022/09/24 14:02:37;;;;;;;;;;;15.10;99.90;;;;;;5074213;28;19970;-73
2022/09/24 14:05:06;;;;;;;;;;;14.90;99.90;;;;;;5073649;28;19908;-74
2022/09/24 14:07:31;;;;;;;;;;;15.00;99.90;;;;;;5073384;28;19919;-74
2022/09/24 14:10:04;;;;;;;;;;;15.10;99.90;;;;;;5073519;28;20341;-74
2022/09/24 14:12:30;;;;;;;;;;;15.10;99.90;;;;;;5074267;28;19909;-74
2022/09/24 14:14:56;;;;;;;;;;;15.20;99.90;;;;;;5073904;28;19916;-74
2022/09/24 14:17:23;;;;;;;;;;;15.30;99.90;;;;;;5074534;28;19954;-75
2022/09/24 14:19:58;;;;;;;;;;;15.40;99.90;;;;;;5073883;28;19963;-73
2022/09/24 14:22:29;;;;;;;;;;;15.40;99.90;;;;;;5073898;28;19939;-74
2022/09/24 14:25:05;;;;;;;;;;;15.40;99.90;;;;;;5073983;28;19915;-74
2022/09/24 14:27:31;;;;;;;;;;;15.20;99.90;;;;;;5074297;28;19909;-74
2022/09/24 14:29:59;;;;;;;;;;;15.00;99.90;;;;;;5073231;28;19956;-75
2022/09/24 14:32:29;;;;;;;;;;;15.00;99.90;;;;;;5072482;28;19962;-75
2022/09/24 14:34:59;;;;;;;;;;;14.90;99.90;;;;;;5073416;28;19915;-75
2022/09/24 14:37:25;;;;;;;;;;;15.00;99.90;;;;;;5072851;28;19912;-75
2022/09/24 14:39:56;;;;;;;;;;;15.10;99.90;;;;;;5073866;28;20078;-75
2022/09/24 14:42:48;;;;;;;;;;;15.10;99.90;;;;;;5072187;28;19981;-73
2022/09/24 14:45:18;;;;;;;;;;;15.20;99.90;;;;;;5071608;28;19995;-74
2022/09/24 14:47:44;;;;;;;;;;;15.40;99.90;;;;;;5073381;28;20242;-73
2022/09/24 14:50:45;;;;;;;;;;;15.50;99.90;;;;;;5071513;28;19927;-75
2022/09/24 14:53:23;;;;;;;;;;;15.40;99.90;;;;;;5050468;28;20062;-74